Thunder radar more information blitzortung!


Radar de pluja more information rain snow radar


Visita la nostra xarxa de llocs de meteo:

Template documentation
and downloads

And another site



Wind From: 11-12-2017 11:00 Until: 14:59 warning for: Wind Level: Yellow info button

Pagina Historial Weather Underground text

Diari Resum Juliol 30, 2017 Unitats:  Imperial    Mètric   Tant
« Previous Dia
SegĂźent Dia »
Diari Setmana Mensual Anual Personalitzada
  Maxima: Minima: Media:
Temperatura: 95.9 °F 71.1 °F 82.8 °F
Punt de rosada: 66.4 °F 61.2 °F 64 °F
Humitat: 76 % 34 % 55 %
Wind Speed: 13.8 mph 0 mph 5.5 mph
RĂ fegues de vent: 13.8 mph - -
Vent:- - East
Pression baro: 29.9 in 29.8 in -
Precipitacions: 0 in    
Historical Graphs
 
 
Dades de taula per Juliol 30, 2017
Temps Temperatura Punt de rosada Pression baro Vent Wind Speed RĂ fegues de vent Humitat Rainfall Rate (Hourly)
00:00 83.3 °F 62.8 °F 29.9 in East 3 mph 4 mph 50 % 0 in
00:10 84.9 °F 63 °F 29.9 in East 3 mph 4 mph 48 % 0 in
00:20 84.4 °F 63.1 °F 29.9 in ENE 3 mph 4 mph 49 % 0 in
05:30 86.4 °F 64.4 °F 29.9 in SSW 2.4 mph 3.1 mph 48 % 0 in
05:35 87.6 °F 65.5 °F 29.9 in West 2.2 mph 2.2 mph 48 % 0 in
05:45 88.3 °F 65.7 °F 29.9 in SE 4.6 mph 4.6 mph 47 % 0 in
05:50 86.5 °F 63.9 °F 29.9 in ESE 6.9 mph 6.9 mph 47 % 0 in
05:54 88 °F 64.6 °F 29.9 in SSE 3.5 mph 3.5 mph 46 % 0 in
05:55 88 °F 64.6 °F 29.9 in West 3.5 mph 3.5 mph 46 % 0 in
06:00 87.6 °F 64.9 °F 29.9 in East 3.5 mph 3.5 mph 47 % 0 in
06:05 88.5 °F 65.7 °F 29.9 in SSW 2.3 mph 2.3 mph 47 % 0 in
06:10 89.6 °F 66 °F 29.9 in SW 3.5 mph 3.5 mph 46 % 0 in
06:15 88.9 °F 66 °F 29.9 in ENE 3.5 mph 3.5 mph 47 % 0 in
06:20 88.5 °F 65.7 °F 29.8 in ENE 6.9 mph 6.9 mph 47 % 0 in
06:25 87.8 °F 65.1 °F 29.8 in ENE 4.6 mph 5.4 mph 47 % 0 in
06:30 87.8 °F 65.1 °F 29.8 in ENE 4.6 mph 4.6 mph 47 % 0 in
06:35 88.7 °F 65.8 °F 29.9 in NE 4 mph 4 mph 47 % 0 in
06:40 88.5 °F 65.7 °F 29.9 in East 5.8 mph 5.8 mph 47 % 0 in
06:45 89.2 °F 66.4 °F 29.9 in NE 2.3 mph 2.3 mph 47 % 0 in
06:50 88.9 °F 65.5 °F 29.8 in ESE 6.4 mph 6.4 mph 46 % 0 in
06:55 88.2 °F 64.8 °F 29.8 in East 10.4 mph 10.4 mph 46 % 0 in
07:00 88.3 °F 64.2 °F 29.8 in East 10.7 mph 10.7 mph 45 % 0 in
07:05 89.1 °F 64.9 °F 29.8 in ESE 8.1 mph 8.1 mph 45 % 0 in
07:10 88.7 °F 64.6 °F 29.8 in SSE 7.8 mph 7.8 mph 45 % 0 in
07:11 88.7 °F 64.6 °F 29.8 in East 8.1 mph 8.1 mph 45 % 0 in
07:21 89.1 °F 64.2 °F 29.8 in ESE 10.4 mph 10.4 mph 44 % 0 in
07:26 88.9 °F 64 °F 29.8 in East 6.4 mph 6.4 mph 44 % 0 in
07:31 89.8 °F 64.2 °F 29.8 in East 11.5 mph 11.5 mph 43 % 0 in
07:36 89.2 °F 63.9 °F 29.8 in SE 11.5 mph 11.5 mph 43 % 0 in
07:41 89.2 °F 63.9 °F 29.8 in SE 8.1 mph 8.1 mph 43 % 0 in
07:46 89.2 °F 63.9 °F 29.8 in ESE 9.2 mph 9.2 mph 43 % 0 in
07:51 88.9 °F 63.5 °F 29.8 in ENE 8.1 mph 9 mph 43 % 0 in
07:56 88.9 °F 64 °F 29.8 in ENE 12.7 mph 12.7 mph 44 % 0 in
08:01 89.2 °F 64.6 °F 29.8 in NE 9.2 mph 9.2 mph 44 % 0 in
08:06 89.1 °F 63.7 °F 29.8 in ESE 10.4 mph 10.4 mph 43 % 0 in
08:11 89.8 °F 64.9 °F 29.8 in ESE 10.2 mph 10.2 mph 44 % 0 in
08:16 90 °F 64.6 °F 29.8 in ENE 6 mph 6 mph 43 % 0 in
08:21 89.8 °F 64.2 °F 29.8 in SE 11.5 mph 11.5 mph 43 % 0 in
08:26 89.6 °F 64 °F 29.8 in ESE 10.7 mph 10.7 mph 43 % 0 in
08:31 89.2 °F 63.9 °F 29.8 in ESE 10.4 mph 10.4 mph 43 % 0 in
08:36 90 °F 64.6 °F 29.8 in East 10.4 mph 10.4 mph 43 % 0 in
08:41 90 °F 63.9 °F 29.8 in ESE 8.1 mph 8.7 mph 42 % 0 in
08:46 90 °F 63.9 °F 29.8 in ESE 12.7 mph 12.7 mph 42 % 0 in
08:51 90.3 °F 64 °F 29.8 in East 10.4 mph 10.4 mph 42 % 0 in
08:56 90.5 °F 64.2 °F 29.8 in ESE 9.2 mph 9.2 mph 42 % 0 in
09:01 90.3 °F 63.3 °F 29.8 in East 13.2 mph 13.2 mph 41 % 0 in
09:06 90.5 °F 64.2 °F 29.8 in ESE 13.8 mph 13.8 mph 42 % 0 in
09:16 90.1 °F 64 °F 29.8 in ENE 10.4 mph 10.4 mph 42 % 0 in
09:21 91 °F 64.8 °F 29.8 in ENE 10.5 mph 10.5 mph 42 % 0 in
09:26 90.7 °F 64.4 °F 29.8 in NNE 11.5 mph 11.5 mph 42 % 0 in
09:31 91.4 °F 63.7 °F 29.8 in East 8.1 mph 8.1 mph 40 % 0 in
09:36 91.4 °F 62.2 °F 29.8 in SE 9.2 mph 9.2 mph 38 % 0 in
09:41 92.3 °F 63.9 °F 29.8 in East 6.9 mph 6.9 mph 39 % 0 in
09:46 91.4 °F 63 °F 29.8 in East 7.1 mph 7.1 mph 39 % 0 in
09:51 91.2 °F 63.5 °F 29.8 in ESE 9.2 mph 9.2 mph 40 % 0 in
09:56 92.3 °F 62.2 °F 29.8 in South 5.8 mph 5.8 mph 37 % 0 in
10:01 93.4 °F 62.4 °F 29.8 in East 4.6 mph 4.6 mph 36 % 0 in
10:06 94.5 °F 64.9 °F 29.8 in SW 6.2 mph 6.2 mph 38 % 0 in
10:11 94.3 °F 64 °F 29.8 in SW 5.8 mph 5.8 mph 37 % 0 in
10:16 94.6 °F 63.5 °F 29.8 in ESE 3.5 mph 3.5 mph 36 % 0 in
10:21 94.1 °F 63.1 °F 29.8 in SE 9.2 mph 9.2 mph 36 % 0 in
10:26 94.1 °F 63.9 °F 29.8 in South 2.3 mph 2.3 mph 37 % 0 in
10:31 95 °F 63.1 °F 29.8 in SSW 5.8 mph 5.8 mph 35 % 0 in
10:37 94.6 °F 63.5 °F 29.8 in South 3.5 mph 3.5 mph 36 % 0 in
10:42 95.9 °F 63 °F 29.8 in SSW 3.5 mph 3.5 mph 34 % 0 in
10:47 93.9 °F 61.3 °F 29.8 in ESE 6.9 mph 6.9 mph 34 % 0 in
10:52 93.6 °F 62.6 °F 29.8 in South 5.8 mph 5.8 mph 36 % 0 in
10:57 93.4 °F 61.5 °F 29.8 in NE 5.8 mph 5.8 mph 35 % 0 in
11:02 92.8 °F 61.2 °F 29.8 in NE 5.8 mph 5.8 mph 35 % 0 in
11:07 93 °F 61.3 °F 29.8 in SE 5.8 mph 5.8 mph 35 % 0 in
11:12 93 °F 62.1 °F 29.8 in ESE 8.1 mph 8.1 mph 36 % 0 in
11:17 92.3 °F 61.5 °F 29.8 in ESE 8.1 mph 8.1 mph 36 % 0 in
11:22 91 °F 61.2 °F 29.8 in ESE 9.2 mph 9.2 mph 37 % 0 in
11:27 90.9 °F 61.7 °F 29.8 in ENE 5.8 mph 5.8 mph 38 % 0 in
11:32 91.2 °F 62.1 °F 29.8 in ESE 5.8 mph 5.8 mph 38 % 0 in
11:37 91.2 °F 62.1 °F 29.8 in SE 9.2 mph 9.2 mph 38 % 0 in
11:42 90.7 °F 62.2 °F 29.8 in SSE 10.4 mph 10.4 mph 39 % 0 in
11:47 90.3 °F 62.8 °F 29.8 in ESE 4.6 mph 4.6 mph 40 % 0 in
11:52 89.6 °F 62.8 °F 29.8 in ENE 10.4 mph 10.4 mph 41 % 0 in
11:55 89.2 °F 62.4 °F 29.8 in East 8.1 mph 8.1 mph 41 % 0 in
12:00 89.2 °F 63.1 °F 29.8 in East 5.8 mph 6 mph 42 % 0 in
12:05 88.5 °F 62.4 °F 29.8 in ENE 11.5 mph 11.5 mph 42 % 0 in
12:10 88.5 °F 63.1 °F 29.8 in NE 9.2 mph 9.2 mph 43 % 0 in
12:15 88 °F 62.8 °F 29.8 in ESE 9.2 mph 9.2 mph 43 % 0 in
12:20 87.6 °F 63 °F 29.8 in ESE 9.2 mph 9.2 mph 44 % 0 in
12:25 87.1 °F 63.1 °F 29.8 in NE 10.4 mph 10.4 mph 45 % 0 in
12:30 87.1 °F 63.1 °F 29.8 in East 6.9 mph 6.9 mph 45 % 0 in
12:35 86.7 °F 63.5 °F 29.8 in East 10.4 mph 10.4 mph 46 % 0 in
12:40 86.5 °F 63.3 °F 29.8 in ESE 10.7 mph 10.7 mph 46 % 0 in
12:45 86.5 °F 63.9 °F 29.8 in ENE 6.9 mph 6.9 mph 47 % 0 in
12:50 86.5 °F 63.9 °F 29.8 in ESE 9.8 mph 9.8 mph 47 % 0 in
12:55 85.8 °F 63.9 °F 29.8 in NE 10.4 mph 10.4 mph 48 % 0 in
13:00 85.6 °F 64.2 °F 29.8 in ENE 9.2 mph 9.2 mph 49 % 0 in
13:05 85.3 °F 64 °F 29.8 in East 8.1 mph 8.1 mph 49 % 0 in
13:10 84.7 °F 64 °F 29.8 in ENE 9.2 mph 9.2 mph 50 % 0 in
13:15 84.7 °F 64.6 °F 29.8 in ENE 8.1 mph 8.1 mph 51 % 0 in
13:20 84.6 °F 64.9 °F 29.8 in East 9.2 mph 9.2 mph 52 % 0 in
13:25 84.4 °F 64.8 °F 29.8 in ENE 8.1 mph 8.1 mph 52 % 0 in
13:30 83.8 °F 65.5 °F 29.8 in ESE 10.4 mph 10.4 mph 54 % 0 in
13:35 83.5 °F 65.7 °F 29.8 in ESE 9.2 mph 9.2 mph 55 % 0 in
13:40 83.5 °F 65.7 °F 29.8 in ESE 5.8 mph 5.8 mph 55 % 0 in
13:45 83.5 °F 65.7 °F 29.8 in ESE 8.5 mph 8.5 mph 55 % 0 in
13:50 83.1 °F 65.8 °F 29.8 in ESE 6.9 mph 6.9 mph 56 % 0 in
13:55 82.9 °F 65.7 °F 29.8 in ESE 10.4 mph 10.4 mph 56 % 0 in
14:00 82.4 °F 65.7 °F 29.8 in ESE 6.2 mph 6.2 mph 57 % 0 in
14:05 82.2 °F 65.5 °F 29.8 in East 6.9 mph 6.9 mph 57 % 0 in
14:10 82 °F 65.8 °F 29.8 in ESE 6.9 mph 6.9 mph 58 % 0 in
14:15 81.9 °F 65.1 °F 29.8 in ESE 8.1 mph 8.1 mph 57 % 0 in
14:20 81.5 °F 64.8 °F 29.8 in ESE 7.4 mph 7.4 mph 57 % 0 in
14:25 81.3 °F 64.6 °F 29.8 in ENE 8.1 mph 8.1 mph 57 % 0 in
14:30 81.1 °F 64 °F 29.8 in ESE 5.8 mph 5.8 mph 56 % 0 in
14:35 81.1 °F 64 °F 29.8 in SE 4.6 mph 4.6 mph 56 % 0 in
14:40 81 °F 63.9 °F 29.8 in East 5.8 mph 5.8 mph 56 % 0 in
14:45 80.8 °F 63.1 °F 29.8 in ENE 4.6 mph 4.6 mph 55 % 0 in
14:50 80.6 °F 63 °F 29.8 in ENE 4.3 mph 4.3 mph 55 % 0 in
14:55 80.4 °F 63.3 °F 29.8 in ENE 4.6 mph 4.6 mph 56 % 0 in
15:00 80.2 °F 63.7 °F 29.8 in ENE 5.8 mph 5.8 mph 57 % 0 in
15:05 80.1 °F 63.5 °F 29.8 in East 3.5 mph 3.5 mph 57 % 0 in
15:10 79.7 °F 63.7 °F 29.8 in ESE 3.6 mph 3.6 mph 58 % 0 in
15:11 79.7 °F 63.7 °F 29.8 in ENE 3.6 mph 3.6 mph 58 % 0 in
15:16 79.5 °F 63.3 °F 29.8 in ENE 4.6 mph 4.6 mph 58 % 0 in
15:20 73.9 °F 65.5 °F 29.8 in NE 2 mph 2 mph 75 % 0 in
15:21 79.3 °F 64.2 °F 29.8 in East 5.9 mph 5.9 mph 60 % 0 in
15:26 79 °F 64.4 °F 29.8 in NNE 5.8 mph 5.8 mph 61 % 0 in
15:30 73.8 °F 65.3 °F 29.8 in NE 2 mph 3 mph 75 % 0 in
15:31 78.8 °F 64.2 °F 29.8 in NNE 3.1 mph 3.1 mph 61 % 0 in
15:36 78.6 °F 64 °F 29.8 in NE 4.6 mph 4.6 mph 61 % 0 in
15:40 73.6 °F 65.5 °F 29.8 in Calm   2 mph 76 % 0 in
15:41 78.6 °F 64.6 °F 29.8 in East 3.5 mph 3.5 mph 62 % 0 in
15:46 78.3 °F 64.6 °F 29.8 in NE 5.8 mph 5.8 mph 63 % 0 in
15:50 73.6 °F 65.1 °F 29.8 in NE 2 mph 3 mph 75 % 0 in
15:51 78.3 °F 65.1 °F 29.8 in East 5.8 mph 5.8 mph 64 % 0 in
15:56 78.1 °F 64.9 °F 29.8 in ENE 3.6 mph 3.6 mph 64 % 0 in
16:00 73.6 °F 64.8 °F 29.8 in NE 1 mph 3 mph 74 % 0 in
16:01 78.1 °F 64.9 °F 29.8 in NE 3.5 mph 3.5 mph 64 % 0 in
16:06 77.9 °F 64.8 °F 29.8 in East 3.5 mph 3.5 mph 64 % 0 in
16:10 73.6 °F 64.8 °F 29.8 in NE 2 mph 2 mph 74 % 0 in
16:16 77.7 °F 65.5 °F 29.8 in ENE 3.5 mph 3.5 mph 66 % 0 in
16:20 73.6 °F 64.4 °F 29.8 in ENE 2 mph 5 mph 73 % 0 in
16:21 77.5 °F 65.3 °F 29.8 in East 3.6 mph 3.6 mph 66 % 0 in
16:26 77.5 °F 65.7 °F 29.8 in ENE 2.3 mph 2.6 mph 67 % 0 in
16:30 73.6 °F 64 °F 29.8 in East 2 mph 6 mph 72 % 0 in
16:31 77.4 °F 66 °F 29.8 in North 4.6 mph 4.6 mph 68 % 0 in
16:36 77.2 °F 65.8 °F 29.8 in ENE 2.3 mph 2.3 mph 68 % 0 in
16:40 73.6 °F 63.7 °F 29.8 in ENE 3 mph 3 mph 71 % 0 in
16:41 77 °F 65.7 °F 29.8 in NNE 3.5 mph 3.6 mph 68 % 0 in
16:46 76.8 °F 66.4 °F 29.8 in ENE 2.6 mph 2.6 mph 70 % 0 in
16:50 73.6 °F 63.7 °F 29.8 in ENE 3 mph 4 mph 71 % 0 in
16:51 76.6 °F 66 °F 29.8 in ENE 4.6 mph 4.6 mph 70 % 0 in
16:56 76.6 °F 66 °F 29.8 in ENE 5.8 mph 5.8 mph 70 % 0 in
17:00 73.4 °F 63.3 °F 29.8 in NE 3 mph 4 mph 71 % 0 in
17:01 76.5 °F 65.8 °F 29.8 in ENE 4.6 mph 4.6 mph 70 % 0 in
17:06 76.3 °F 65.8 °F 29.8 in East 2.6 mph 2.6 mph 70 % 0 in
17:10 73 °F 63.1 °F 29.8 in NE 2 mph 3 mph 71 % 0 in
17:11 76.3 °F 66.2 °F 29.8 in NNE 2.4 mph 2.4 mph 71 % 0 in
17:16 76.3 °F 66.2 °F 29.8 in ENE 4.6 mph 4.6 mph 71 % 0 in
17:20 72.9 °F 63 °F 29.8 in NNE 3 mph 4 mph 71 % 0 in
17:21 76.3 °F 66.2 °F 29.8 in ENE 2.3 mph 2.3 mph 71 % 0 in
17:26 76.1 °F 66 °F 29.8 in ENE 2.4 mph 2.4 mph 71 % 0 in
17:30 72.9 °F 63 °F 29.8 in NE 3 mph 4 mph 71 % 0 in
17:31 76.1 °F 66 °F 29.8 in East 2.9 mph 2.9 mph 71 % 0 in
17:36 75.9 °F 66.2 °F 29.8 in NNE 1.2 mph 1.2 mph 72 % 0 in
17:40 72.7 °F 62.8 °F 29.8 in NE 3 mph 4 mph 71 % 0 in
17:41 75.9 °F 66.2 °F 29.8 in Calm     72 % 0 in
17:46 75.7 °F 66 °F 29.8 in Calm     72 % 0 in
17:50 72.7 °F 62.8 °F 29.8 in NE 3 mph 4 mph 71 % 0 in
17:51 75.7 °F 66 °F 29.8 in SW 2.3 mph 2.3 mph 72 % 0 in
17:56 75.6 °F 65.8 °F 29.8 in SW 1.2 mph   72 % 0 in
18:00 72.5 °F 62.6 °F 29.8 in NE 3 mph 4 mph 71 % 0 in
18:01 75.6 °F 65.8 °F 29.8 in SW 1.2 mph 1.2 mph 72 % 0 in
18:06 75.6 °F 66.4 °F 29.8 in Calm     73 % 0 in
18:10 72.3 °F 62.4 °F 29.8 in NE 2 mph 3 mph 71 % 0 in
18:11 75.6 °F 66.4 °F 29.8 in ENE 2 mph 2 mph 73 % 0 in
18:20 72.3 °F 62.4 °F 29.8 in NNE 2 mph 4 mph 71 % 0 in
18:30 72.3 °F 62.4 °F 29.8 in NNE 3 mph 4 mph 71 % 0 in
18:40 72.3 °F 62.4 °F 29.8 in NNE 3 mph 4 mph 71 % 0 in
18:50 72.3 °F 62.4 °F 29.8 in NNE 3 mph 4 mph 71 % 0 in
19:00 72.1 °F 62.6 °F 29.8 in NE 3 mph 3 mph 72 % 0 in
19:10 72.1 °F 62.6 °F 29.8 in NE 3 mph 4 mph 72 % 0 in
19:20 72 °F 62.1 °F 29.8 in NE 3 mph 3 mph 71 % 0 in
19:30 72 °F 62.4 °F 29.8 in NE 3 mph 4 mph 72 % 0 in
19:40 71.8 °F 62.2 °F 29.8 in NE 3 mph 4 mph 72 % 0 in
19:50 71.6 °F 62.1 °F 29.8 in NNE 3 mph 4 mph 72 % 0 in
20:00 71.2 °F 62.1 °F 29.8 in NNE 2 mph 3 mph 73 % 0 in
20:10 71.1 °F 61.5 °F 29.8 in NNE 2 mph 3 mph 72 % 0 in
20:20 71.1 °F 61.2 °F 29.8 in NNE 1 mph 3 mph 71 % 0 in
20:30 71.4 °F 61.5 °F 29.8 in NNE 1 mph 3 mph 71 % 0 in
20:40 72.1 °F 61.3 °F 29.8 in NNE 2 mph 3 mph 69 % 0 in
20:50 72.7 °F 61.9 °F 29.8 in NNE 2 mph 3 mph 69 % 0 in
21:00 73.2 °F 62.1 °F 29.8 in NE 2 mph 3 mph 68 % 0 in
21:10 73.8 °F 63 °F 29.8 in ENE 3 mph 3 mph 69 % 0 in
21:20 74.3 °F 63.5 °F 29.8 in ENE 3 mph 3 mph 69 % 0 in
21:30 74.7 °F 63.9 °F 29.8 in ENE 3 mph 4 mph 69 % 0 in
21:40 75 °F 64.2 °F 29.8 in East 2 mph 3 mph 69 % 0 in
21:50 75.9 °F 64.6 °F 29.8 in ENE 3 mph 4 mph 68 % 0 in
22:00 75.9 °F 64.6 °F 29.8 in ENE 3 mph 4 mph 68 % 0 in
22:10 76.5 °F 64.8 °F 29.8 in ENE 3 mph 5 mph 67 % 0 in
22:20 77.2 °F 64.9 °F 29.8 in ENE 3 mph 5 mph 66 % 0 in
22:30 77.5 °F 65.3 °F 29.8 in East 3 mph 5 mph 66 % 0 in
22:40 77.7 °F 64.9 °F 29.8 in ESE 5 mph 5 mph 65 % 0 in
22:50 79.3 °F 66 °F 29.8 in ESE 2 mph 5 mph 64 % 0 in
23:00 79.7 °F 65.5 °F 29.8 in East 6 mph 6 mph 62 % 0 in
23:10 80.2 °F 65.1 °F 29.8 in ENE 5 mph 6 mph 60 % 0 in
23:20 80.6 °F 64.9 °F 29.8 in East 3 mph 4 mph 59 % 0 in
23:30 80.6 °F 64.6 °F 29.8 in East 5 mph 6 mph 58 % 0 in
23:40 81.7 °F 64.9 °F 29.8 in East 7 mph 12 mph 57 % 0 in
23:50 81.9 °F 64 °F 29.8 in East 3 mph 8 mph 55 % 0 in
Meteo Sesrovires
Elogis d' Weather Underground - 3.5 mb

Guio original per  Jim McMurry - jmcmurry@mwt.net Adaptat per a la plantilla per  Wim van der Kuil - Leuven-Template.eu

Trobareu la nostra informacio del temps tambe a:

Weather Underground

AWEKAS